sensor_id;sensor_type;location;lat;lon;timestamp;pressure;altitude;pressure_sealevel;temperature;humidity
13968;BME280;39536;52.198;9.920;2022-11-15T00:01:18;100300.97;;;8.43;100.00
13968;BME280;39536;52.198;9.920;2022-11-15T00:03:45;100304.31;;;8.46;100.00
13968;BME280;39536;52.198;9.920;2022-11-15T00:06:13;100309.50;;;8.48;100.00
13968;BME280;39536;52.198;9.920;2022-11-15T00:08:39;100299.13;;;8.46;100.00
13968;BME280;39536;52.198;9.920;2022-11-15T00:11:06;100311.16;;;8.50;100.00
13968;BME280;39536;52.198;9.920;2022-11-15T00:13:34;100305.84;;;8.53;100.00
13968;BME280;39536;52.198;9.920;2022-11-15T00:16:01;100316.22;;;8.55;100.00
13968;BME280;39536;52.198;9.920;2022-11-15T00:18:28;100309.94;;;8.62;100.00
13968;BME280;39536;52.198;9.920;2022-11-15T00:20:55;100304.66;;;8.65;100.00
13968;BME280;39536;52.198;9.920;2022-11-15T00:23:23;100307.94;;;8.72;100.00
13968;BME280;39536;52.198;9.920;2022-11-15T00:25:55;100302.66;;;8.75;100.00
13968;BME280;39536;52.198;9.920;2022-11-15T00:28:22;100304.31;;;8.77;100.00
13968;BME280;39536;52.198;9.920;2022-11-15T00:30:49;100290.53;;;8.75;100.00
13968;BME280;39536;52.198;9.920;2022-11-15T00:33:15;100294.78;;;8.78;100.00
13968;BME280;39536;52.198;9.920;2022-11-15T00:35:42;100289.41;;;8.84;100.00
13968;BME280;39536;52.198;9.920;2022-11-15T00:38:08;100287.63;;;8.86;100.00
13968;BME280;39536;52.198;9.920;2022-11-15T00:40:36;100294.19;;;8.98;100.00
13968;BME280;39536;52.198;9.920;2022-11-15T00:43:03;100292.19;;;9.08;100.00
13968;BME280;39536;52.198;9.920;2022-11-15T00:45:29;100291.06;;;9.15;100.00
13968;BME280;39536;52.198;9.920;2022-11-15T00:47:56;100291.53;;;9.28;100.00
13968;BME280;39536;52.198;9.920;2022-11-15T00:50:22;100278.25;;;9.37;100.00
13968;BME280;39536;52.198;9.920;2022-11-15T00:52:49;100283.28;;;9.43;100.00
13968;BME280;39536;52.198;9.920;2022-11-15T00:55:16;100288.97;;;9.54;100.00
13968;BME280;39536;52.198;9.920;2022-11-15T00:57:45;100286.38;;;9.54;100.00
13968;BME280;39536;52.198;9.920;2022-11-15T01:00:12;100278.31;;;9.62;100.00
13968;BME280;39536;52.198;9.920;2022-11-15T01:02:39;100273.88;;;9.65;100.00
13968;BME280;39536;52.198;9.920;2022-11-15T01:05:06;100271.22;;;9.67;100.00
13968;BME280;39536;52.198;9.920;2022-11-15T01:07:33;100271.03;;;9.73;100.00
13968;BME280;39536;52.198;9.920;2022-11-15T01:10:00;100270.91;;;9.76;100.00
13968;BME280;39536;52.198;9.920;2022-11-15T01:12:26;100271.72;;;9.78;100.00
13968;BME280;39536;52.198;9.920;2022-11-15T01:14:54;100265.63;;;9.79;100.00
13968;BME280;39536;52.198;9.920;2022-11-15T01:17:21;100259.47;;;9.82;100.00
13968;BME280;39536;52.198;9.920;2022-11-15T01:19:47;100249.91;;;9.82;100.00
13968;BME280;39536;52.198;9.920;2022-11-15T01:22:14;100247.97;;;9.87;100.00
13968;BME280;39536;52.198;9.920;2022-11-15T01:24:41;100247.19;;;9.85;100.00
13968;BME280;39536;52.198;9.920;2022-11-15T01:27:08;100238.28;;;9.92;100.00
13968;BME280;39536;52.198;9.920;2022-11-15T01:29:34;100230.38;;;9.95;100.00
13968;BME280;39536;52.198;9.920;2022-11-15T01:32:02;100234.75;;;9.93;100.00
13968;BME280;39536;52.198;9.920;2022-11-15T01:34:29;100223.50;;;9.93;100.00
13968;BME280;39536;52.198;9.920;2022-11-15T01:36:56;100220.28;;;9.86;100.00
13968;BME280;39536;52.198;9.920;2022-11-15T01:39:22;100225.47;;;9.86;100.00
13968;BME280;39536;52.198;9.920;2022-11-15T01:41:49;100227.28;;;9.84;100.00
13968;BME280;39536;52.198;9.920;2022-11-15T01:44:38;100221.19;;;9.85;100.00
13968;BME280;39536;52.198;9.920;2022-11-15T01:47:09;100212.53;;;9.85;100.00
13968;BME280;39536;52.198;9.920;2022-11-15T01:49:39;100222.94;;;9.85;100.00
13968;BME280;39536;52.198;9.920;2022-11-15T01:52:10;100219.47;;;9.84;100.00
13968;BME280;39536;52.198;9.920;2022-11-15T01:54:38;100216.75;;;9.87;100.00
13968;BME280;39536;52.198;9.920;2022-11-15T01:57:08;100220.97;;;9.91;100.00
13968;BME280;39536;52.198;9.920;2022-11-15T01:59:37;100216.28;;;10.01;100.00
13968;BME280;39536;52.198;9.920;2022-11-15T02:02:04;100215.97;;;10.10;100.00
13968;BME280;39536;52.198;9.920;2022-11-15T02:04:35;100212.63;;;10.07;100.00
13968;BME280;39536;52.198;9.920;2022-11-15T02:07:03;100211.44;;;10.15;100.00
13968;BME280;39536;52.198;9.920;2022-11-15T02:09:30;100208.56;;;10.23;100.00
13968;BME280;39536;52.198;9.920;2022-11-15T02:11:57;100207.22;;;10.36;100.00
13968;BME280;39536;52.198;9.920;2022-11-15T02:14:27;100202.47;;;10.48;100.00
13968;BME280;39536;52.198;9.920;2022-11-15T02:16:59;100198.63;;;10.58;100.00
13968;BME280;39536;52.198;9.920;2022-11-15T02:19:40;100187.97;;;10.64;100.00
13968;BME280;39536;52.198;9.920;2022-11-15T02:22:25;100183.47;;;10.68;100.00
13968;BME280;39536;52.198;9.920;2022-11-15T02:25:20;100175.75;;;10.66;100.00
13968;BME280;39536;52.198;9.920;2022-11-15T02:28:16;100181.56;;;10.73;100.00
13968;BME280;39536;52.198;9.920;2022-11-15T02:30:52;100176.09;;;10.79;100.00
13968;BME280;39536;52.198;9.920;2022-11-15T02:33:28;100176.88;;;10.81;100.00
13968;BME280;39536;52.198;9.920;2022-11-15T02:36:00;100181.97;;;10.84;100.00
13968;BME280;39536;52.198;9.920;2022-11-15T02:38:31;100184.44;;;10.87;100.00
13968;BME280;39536;52.198;9.920;2022-11-15T02:41:02;100183.38;;;10.93;100.00
13968;BME280;39536;52.198;9.920;2022-11-15T02:43:36;100174.53;;;10.97;100.00
13968;BME280;39536;52.198;9.920;2022-11-15T02:46:28;100174.53;;;10.97;100.00
13968;BME280;39536;52.198;9.920;2022-11-15T02:49:11;100184.03;;;10.98;100.00
13968;BME280;39536;52.198;9.920;2022-11-15T02:51:39;100177.91;;;10.99;100.00
13968;BME280;39536;52.198;9.920;2022-11-15T02:54:10;100175.25;;;11.00;100.00
13968;BME280;39536;52.198;9.920;2022-11-15T02:56:38;100175.84;;;11.07;100.00
13968;BME280;39536;52.198;9.920;2022-11-15T02:59:13;100173.13;;;11.10;100.00
13968;BME280;39536;52.198;9.920;2022-11-15T03:01:58;100167.22;;;11.05;100.00
13968;BME280;39536;52.198;9.920;2022-11-15T03:04:37;100159.53;;;11.02;100.00
13968;BME280;39536;52.198;9.920;2022-11-15T03:07:11;100161.44;;;10.98;100.00
13968;BME280;39536;52.198;9.920;2022-11-15T03:09:42;100163.25;;;10.96;100.00
13968;BME280;39536;52.198;9.920;2022-11-15T03:12:18;100173.75;;;10.95;100.00
13968;BME280;39536;52.198;9.920;2022-11-15T03:14:54;100172.81;;;10.96;100.00
13968;BME280;39536;52.198;9.920;2022-11-15T03:17:26;100170.28;;;10.94;100.00
13968;BME280;39536;52.198;9.920;2022-11-15T03:19:56;100176.34;;;10.95;100.00
13968;BME280;39536;52.198;9.920;2022-11-15T03:22:25;100170.28;;;10.94;100.00
13968;BME280;39536;52.198;9.920;2022-11-15T03:24:55;100169.50;;;10.92;100.00
13968;BME280;39536;52.198;9.920;2022-11-15T03:27:26;100170.47;;;10.90;100.00
13968;BME280;39536;52.198;9.920;2022-11-15T03:29:57;100171.38;;;10.89;100.00
13968;BME280;39536;52.198;9.920;2022-11-15T03:32:29;100168.06;;;10.85;100.00
13968;BME280;39536;52.198;9.920;2022-11-15T03:34:58;100160.47;;;10.79;100.00
13968;BME280;39536;52.198;9.920;2022-11-15T03:37:32;100166.41;;;10.82;100.00
13968;BME280;39536;52.198;9.920;2022-11-15T03:40:02;100169.97;;;10.80;100.00
13968;BME280;39536;52.198;9.920;2022-11-15T03:42:33;100164.84;;;10.78;100.00
13968;BME280;39536;52.198;9.920;2022-11-15T03:45:10;100180.72;;;10.72;100.00
13968;BME280;39536;52.198;9.920;2022-11-15T03:47:43;100177.31;;;10.70;100.00
13968;BME280;39536;52.198;9.920;2022-11-15T03:50:13;100183.91;;;10.57;100.00
13968;BME280;39536;52.198;9.920;2022-11-15T03:52:40;100189.28;;;10.52;100.00
13968;BME280;39536;52.198;9.920;2022-11-15T03:55:10;100181.66;;;10.48;100.00
13968;BME280;39536;52.198;9.920;2022-11-15T03:57:37;100186.84;;;10.48;100.00
13968;BME280;39536;52.198;9.920;2022-11-15T04:00:05;100178.47;;;10.39;100.00
13968;BME280;39536;52.198;9.920;2022-11-15T04:02:32;100175.22;;;10.34;100.00
13968;BME280;39536;52.198;9.920;2022-11-15T04:05:00;100182.97;;;10.36;100.00
13968;BME280;39536;52.198;9.920;2022-11-15T04:07:26;100180.66;;;10.28;100.00
13968;BME280;39536;52.198;9.920;2022-11-15T04:09:53;100171.31;;;10.21;100.00
13968;BME280;39536;52.198;9.920;2022-11-15T04:12:28;100169.16;;;10.09;100.00
13968;BME280;39536;52.198;9.920;2022-11-15T04:14:59;100165.06;;;10.03;100.00
13968;BME280;39536;52.198;9.920;2022-11-15T04:17:37;100169.34;;;10.04;100.00
13968;BME280;39536;52.198;9.920;2022-11-15T04:20:07;100174.56;;;10.04;100.00
13968;BME280;39536;52.198;9.920;2022-11-15T04:22:52;100181.06;;;10.16;100.00
13968;BME280;39536;52.198;9.920;2022-11-15T04:25:37;100183.66;;;10.16;100.00
13968;BME280;39536;52.198;9.920;2022-11-15T04:28:04;100180.88;;;10.21;100.00
13968;BME280;39536;52.198;9.920;2022-11-15T04:30:30;100186.06;;;10.22;100.00
13968;BME280;39536;52.198;9.920;2022-11-15T04:32:57;100187.78;;;10.22;100.00
13968;BME280;39536;52.198;9.920;2022-11-15T04:35:25;100188.75;;;10.19;100.00
13968;BME280;39536;52.198;9.920;2022-11-15T04:37:51;100187.75;;;10.23;100.00
13968;BME280;39536;52.198;9.920;2022-11-15T04:40:18;100176.28;;;10.29;100.00
13968;BME280;39536;52.198;9.920;2022-11-15T04:42:44;100181.41;;;10.30;100.00
13968;BME280;39536;52.198;9.920;2022-11-15T04:45:11;100177.94;;;10.31;100.00
13968;BME280;39536;52.198;9.920;2022-11-15T04:47:37;100179.72;;;10.29;100.00
13968;BME280;39536;52.198;9.920;2022-11-15T04:50:05;100179.78;;;10.28;100.00
13968;BME280;39536;52.198;9.920;2022-11-15T04:52:33;100180.69;;;10.27;100.00
13968;BME280;39536;52.198;9.920;2022-11-15T04:54:59;100173.75;;;10.26;100.00
13968;BME280;39536;52.198;9.920;2022-11-15T04:57:26;100176.22;;;10.30;100.00
13968;BME280;39536;52.198;9.920;2022-11-15T04:59:52;100176.22;;;10.30;100.00
13968;BME280;39536;52.198;9.920;2022-11-15T05:02:19;100171.13;;;10.27;100.00
13968;BME280;39536;52.198;9.920;2022-11-15T05:04:46;100172.91;;;10.25;100.00
13968;BME280;39536;52.198;9.920;2022-11-15T05:07:11;100172.13;;;10.23;100.00
13968;BME280;39536;52.198;9.920;2022-11-15T05:09:39;100177.44;;;10.20;100.00
13968;BME280;39536;52.198;9.920;2022-11-15T05:12:06;100179.97;;;10.22;100.00
13968;BME280;39536;52.198;9.920;2022-11-15T05:14:32;100182.56;;;10.22;100.00
13968;BME280;39536;52.198;9.920;2022-11-15T05:16:59;100179.94;;;10.23;100.00
13968;BME280;39536;52.198;9.920;2022-11-15T05:19:26;100181.63;;;10.24;100.00
13968;BME280;39536;52.198;9.920;2022-11-15T05:21:52;100180.56;;;10.30;100.00
13968;BME280;39536;52.198;9.920;2022-11-15T05:24:19;100176.38;;;10.26;100.00
13968;BME280;39536;52.198;9.920;2022-11-15T05:26:47;100179.84;;;10.26;100.00
13968;BME280;39536;52.198;9.920;2022-11-15T05:29:14;100179.84;;;10.25;100.00
13968;BME280;39536;52.198;9.920;2022-11-15T05:31:40;100179.34;;;10.15;100.00
13968;BME280;39536;52.198;9.920;2022-11-15T05:34:07;100171.75;;;10.09;100.00
13968;BME280;39536;52.198;9.920;2022-11-15T05:36:36;100171.84;;;10.07;100.00
13968;BME280;39536;52.198;9.920;2022-11-15T05:39:04;100164.25;;;10.01;100.00
13968;BME280;39536;52.198;9.920;2022-11-15T05:41:33;100165.53;;;9.89;100.00
13968;BME280;39536;52.198;9.920;2022-11-15T05:44:03;100180.28;;;9.89;100.00
13968;BME280;39536;52.198;9.920;2022-11-15T05:46:33;100177.84;;;9.84;100.00
13968;BME280;39536;52.198;9.920;2022-11-15T05:49:00;100175.38;;;9.81;100.00
13968;BME280;39536;52.198;9.920;2022-11-15T05:51:28;100177.91;;;9.83;100.00
13968;BME280;39536;52.198;9.920;2022-11-15T05:53:56;100180.59;;;9.81;100.00
13968;BME280;39536;52.198;9.920;2022-11-15T05:56:24;100180.50;;;9.83;100.00
13968;BME280;39536;52.198;9.920;2022-11-15T05:58:52;100186.63;;;9.82;100.00
13968;BME280;39536;52.198;9.920;2022-11-15T06:01:21;100185.09;;;9.76;100.00
13968;BME280;39536;52.198;9.920;2022-11-15T06:03:47;100182.31;;;9.81;100.00
13968;BME280;39536;52.198;9.920;2022-11-15T06:06:14;100183.97;;;9.83;100.00
13968;BME280;39536;52.198;9.920;2022-11-15T06:08:41;100175.78;;;9.94;100.00
13968;BME280;39536;52.198;9.920;2022-11-15T06:11:07;100169.69;;;9.95;100.00
13968;BME280;39536;52.198;9.920;2022-11-15T06:13:34;100174.91;;;9.93;100.00
13968;BME280;39536;52.198;9.920;2022-11-15T06:16:01;100183.63;;;9.92;100.00
13968;BME280;39536;52.198;9.920;2022-11-15T06:18:31;100188.03;;;9.90;100.00
13968;BME280;39536;52.198;9.920;2022-11-15T06:21:00;100193.34;;;9.87;100.00
13968;BME280;39536;52.198;9.920;2022-11-15T06:23:27;100196.06;;;9.84;100.00
13968;BME280;39536;52.198;9.920;2022-11-15T06:25:57;100192.91;;;9.76;100.00
13968;BME280;39536;52.198;9.920;2022-11-15T06:28:24;100193.81;;;9.75;100.00
13968;BME280;39536;52.198;9.920;2022-11-15T06:30:50;100202.50;;;9.74;100.00
13968;BME280;39536;52.198;9.920;2022-11-15T06:33:17;100203.28;;;9.76;100.00
13968;BME280;39536;52.198;9.920;2022-11-15T06:35:45;100201.72;;;9.72;100.00
13968;BME280;39536;52.198;9.920;2022-11-15T06:38:12;100209.56;;;9.70;100.00
13968;BME280;39536;52.198;9.920;2022-11-15T06:40:39;100208.59;;;9.73;100.00
13968;BME280;39536;52.198;9.920;2022-11-15T06:43:06;100209.50;;;9.72;100.00
13968;BME280;39536;52.198;9.920;2022-11-15T06:45:33;100207.88;;;9.69;100.00
13968;BME280;39536;52.198;9.920;2022-11-15T06:48:00;100211.19;;;9.73;100.00
13968;BME280;39536;52.198;9.920;2022-11-15T06:50:26;100215.69;;;9.68;100.00
13968;BME280;39536;52.198;9.920;2022-11-15T06:53:00;100210.59;;;9.65;100.00
13968;BME280;39536;52.198;9.920;2022-11-15T06:55:27;100205.56;;;9.60;100.00
13968;BME280;39536;52.198;9.920;2022-11-15T06:57:53;100216.06;;;9.57;100.00
13968;BME280;39536;52.198;9.920;2022-11-15T07:00:21;100213.69;;;9.51;100.00
13968;BME280;39536;52.198;9.920;2022-11-15T07:02:48;100222.50;;;9.47;100.00
13968;BME280;39536;52.198;9.920;2022-11-15T07:05:18;100229.38;;;9.48;100.00
13968;BME280;39536;52.198;9.920;2022-11-15T07:07:51;100226.91;;;9.43;100.00
13968;BME280;39536;52.198;9.920;2022-11-15T07:10:18;100232.03;;;9.46;100.00
13968;BME280;39536;52.198;9.920;2022-11-15T07:12:46;100229.41;;;9.46;100.00
13968;BME280;39536;52.198;9.920;2022-11-15T07:15:13;100232.03;;;9.46;100.00
13968;BME280;39536;52.198;9.920;2022-11-15T07:17:40;100228.47;;;9.49;100.00
13968;BME280;39536;52.198;9.920;2022-11-15T07:20:07;100223.34;;;9.47;100.00
13968;BME280;39536;52.198;9.920;2022-11-15T07:22:34;100222.63;;;9.42;100.00
13968;BME280;39536;52.198;9.920;2022-11-15T07:25:01;100222.69;;;9.41;100.00
13968;BME280;39536;52.198;9.920;2022-11-15T07:27:28;100220.88;;;9.43;100.00
13968;BME280;39536;52.198;9.920;2022-11-15T07:29:55;100224.28;;;9.45;100.00
13968;BME280;39536;52.198;9.920;2022-11-15T07:32:21;100220.78;;;9.46;100.00
13968;BME280;39536;52.198;9.920;2022-11-15T07:34:48;100213.72;;;9.49;100.00
13968;BME280;39536;52.198;9.920;2022-11-15T07:37:14;100216.13;;;9.56;100.00
13968;BME280;39536;52.198;9.920;2022-11-15T07:39:42;100218.56;;;9.60;100.00
13968;BME280;39536;52.198;9.920;2022-11-15T07:42:08;100220.91;;;9.68;100.00
13968;BME280;39536;52.198;9.920;2022-11-15T07:44:54;100217.25;;;9.74;100.00
13968;BME280;39536;52.198;9.920;2022-11-15T07:47:21;100218.06;;;9.76;100.00
13968;BME280;39536;52.198;9.920;2022-11-15T07:49:47;100219.53;;;9.83;100.00
13968;BME280;39536;52.198;9.920;2022-11-15T07:52:14;100213.16;;;9.91;100.00
13968;BME280;39536;52.198;9.920;2022-11-15T07:54:40;100219.03;;;9.97;100.00
13968;BME280;39536;52.198;9.920;2022-11-15T07:57:07;100220.06;;;9.92;100.00
13968;BME280;39536;52.198;9.920;2022-11-15T07:59:34;100217.34;;;9.95;100.00
13968;BME280;39536;52.198;9.920;2022-11-15T08:02:02;100212.88;;;9.99;100.00
13968;BME280;39536;52.198;9.920;2022-11-15T08:04:29;100207.53;;;10.04;100.00
13968;BME280;39536;52.198;9.920;2022-11-15T08:06:55;100214.22;;;10.11;100.00
13968;BME280;39536;52.198;9.920;2022-11-15T08:09:22;100205.38;;;10.15;100.00
13968;BME280;39536;52.198;9.920;2022-11-15T08:11:49;100206.19;;;10.17;100.00
13968;BME280;39536;52.198;9.920;2022-11-15T08:14:15;100204.38;;;10.19;100.00
13968;BME280;39536;52.198;9.920;2022-11-15T08:16:42;100202.56;;;10.21;100.00
13968;BME280;39536;52.198;9.920;2022-11-15T08:19:10;100198.94;;;10.25;100.00
13968;BME280;39536;52.198;9.920;2022-11-15T08:21:36;100197.13;;;10.29;100.00
13968;BME280;39536;52.198;9.920;2022-11-15T08:24:03;100197.72;;;10.35;100.00
13968;BME280;39536;52.198;9.920;2022-11-15T08:26:30;100201.03;;;10.40;100.00
13968;BME280;39536;52.198;9.920;2022-11-15T08:28:56;100201.56;;;10.49;100.00
13968;BME280;39536;52.198;9.920;2022-11-15T08:31:23;100197.81;;;10.56;100.00
13968;BME280;39536;52.198;9.920;2022-11-15T08:33:49;100205.28;;;10.65;100.00
13968;BME280;39536;52.198;9.920;2022-11-15T08:36:17;100198.84;;;10.75;100.00
13968;BME280;39536;52.198;9.920;2022-11-15T08:38:44;100200.19;;;10.84;100.00
13968;BME280;39536;52.198;9.920;2022-11-15T08:41:18;100199.81;;;10.95;100.00
13968;BME280;39536;52.198;9.920;2022-11-15T08:43:48;100185.59;;;11.02;100.00
13968;BME280;39536;52.198;9.920;2022-11-15T08:46:14;100195.53;;;11.14;100.00
13968;BME280;39536;52.198;9.920;2022-11-15T08:48:41;100183.94;;;11.21;100.00
13968;BME280;39536;52.198;9.920;2022-11-15T08:51:08;100195.72;;;11.31;100.00
13968;BME280;39536;52.198;9.920;2022-11-15T08:53:35;100191.81;;;11.42;100.00
13968;BME280;39536;52.198;9.920;2022-11-15T08:56:02;100189.75;;;11.50;100.00
13968;BME280;39536;52.198;9.920;2022-11-15T08:58:32;100177.19;;;11.58;100.00
13968;BME280;39536;52.198;9.920;2022-11-15T09:00:59;100179.50;;;11.66;100.00
13968;BME280;39536;52.198;9.920;2022-11-15T09:03:26;100174.06;;;11.70;100.00
13968;BME280;39536;52.198;9.920;2022-11-15T09:05:54;100174.72;;;11.75;100.00
13968;BME280;39536;52.198;9.920;2022-11-15T09:08:21;100174.59;;;11.78;100.00
13968;BME280;39536;52.198;9.920;2022-11-15T09:10:49;100177.81;;;11.85;100.00
13968;BME280;39536;52.198;9.920;2022-11-15T09:13:15;100180.22;;;11.90;100.00
13968;BME280;39536;52.198;9.920;2022-11-15T09:15:42;100194.75;;;11.95;100.00
13968;BME280;39536;52.198;9.920;2022-11-15T09:18:09;100191.03;;;12.01;100.00
13968;BME280;39536;52.198;9.920;2022-11-15T09:20:36;100197.75;;;12.07;100.00
13968;BME280;39536;52.198;9.920;2022-11-15T09:23:03;100202.50;;;12.17;100.00
13968;BME280;39536;52.198;9.920;2022-11-15T09:25:30;100189.94;;;12.25;100.00
13968;BME280;39536;52.198;9.920;2022-11-15T09:27:58;100188.97;;;12.28;100.00
13968;BME280;39536;52.198;9.920;2022-11-15T09:30:25;100179.94;;;12.35;100.00
13968;BME280;39536;52.198;9.920;2022-11-15T09:32:52;100187.47;;;12.41;100.00
13968;BME280;39536;52.198;9.920;2022-11-15T09:35:18;100177.69;;;12.46;100.00
13968;BME280;39536;52.198;9.920;2022-11-15T09:40:14;100180.19;;;12.67;100.00
13968;BME280;39536;52.198;9.920;2022-11-15T09:42:52;100182.38;;;12.76;100.00
13968;BME280;39536;52.198;9.920;2022-11-15T09:45:28;100185.78;;;12.78;100.00
13968;BME280;39536;52.198;9.920;2022-11-15T09:50:48;100182.50;;;12.92;100.00
13968;BME280;39536;52.198;9.920;2022-11-15T09:53:22;100188.13;;;13.02;100.00
13968;BME280;39536;52.198;9.920;2022-11-15T09:55:57;100181.53;;;13.12;100.00
13968;BME280;39536;52.198;9.920;2022-11-15T09:58:28;100185.59;;;13.17;100.00
13968;BME280;39536;52.198;9.920;2022-11-15T10:01:00;100185.19;;;13.27;100.00
13968;BME280;39536;52.198;9.920;2022-11-15T10:03:33;100185.50;;;13.38;100.00
13968;BME280;39536;52.198;9.920;2022-11-15T10:06:02;100182.59;;;13.44;100.00
13968;BME280;39536;52.198;9.920;2022-11-15T10:08:53;100168.94;;;13.55;100.00
13968;BME280;39536;52.198;9.920;2022-11-15T10:11:25;100163.56;;;13.58;100.00
13968;BME280;39536;52.198;9.920;2022-11-15T10:13:54;100167.78;;;13.60;100.00
13968;BME280;39536;52.198;9.920;2022-11-15T10:16:45;100159.72;;;13.65;100.00
13968;BME280;39536;52.198;9.920;2022-11-15T10:19:23;100169.19;;;13.68;100.00
13968;BME280;39536;52.198;9.920;2022-11-15T10:21:59;100164.19;;;13.63;100.00
13968;BME280;39536;52.198;9.920;2022-11-15T10:24:28;100162.66;;;13.59;100.00
13968;BME280;39536;52.198;9.920;2022-11-15T10:26:58;100157.00;;;13.67;100.00
13968;BME280;39536;52.198;9.920;2022-11-15T10:29:25;100158.22;;;13.77;100.00
13968;BME280;39536;52.198;9.920;2022-11-15T10:31:53;100161.63;;;13.79;100.00
13968;BME280;39536;52.198;9.920;2022-11-15T10:34:21;100162.06;;;13.87;100.00
13968;BME280;39536;52.198;9.920;2022-11-15T10:36:54;100154.22;;;13.87;100.00
13968;BME280;39536;52.198;9.920;2022-11-15T10:39:21;100150.81;;;13.85;100.00
13968;BME280;39536;52.198;9.920;2022-11-15T10:41:48;100146.28;;;13.89;100.00
13968;BME280;39536;52.198;9.920;2022-11-15T10:44:24;100146.78;;;13.95;100.00
13968;BME280;39536;52.198;9.920;2022-11-15T10:50:07;100137.09;;;13.97;100.00
13968;BME280;39536;52.198;9.920;2022-11-15T10:52:51;100134.97;;;13.88;100.00
13968;BME280;39536;52.198;9.920;2022-11-15T10:55:25;100138.56;;;13.85;100.00
13968;BME280;39536;52.198;9.920;2022-11-15T10:57:54;100122.13;;;13.83;100.00
13968;BME280;39536;52.198;9.920;2022-11-15T11:00:32;100130.19;;;13.79;100.00
13968;BME280;39536;52.198;9.920;2022-11-15T11:03:00;100134.66;;;13.77;100.00
13968;BME280;39536;52.198;9.920;2022-11-15T11:05:31;100129.63;;;13.74;100.00
13968;BME280;39536;52.198;9.920;2022-11-15T11:08:00;100133.28;;;13.70;100.00
13968;BME280;39536;52.198;9.920;2022-11-15T11:10:27;100122.25;;;13.65;100.00
13968;BME280;39536;52.198;9.920;2022-11-15T11:12:54;100127.78;;;13.58;100.00
13968;BME280;39536;52.198;9.920;2022-11-15T11:15:23;100118.53;;;13.51;100.00
13968;BME280;39536;52.198;9.920;2022-11-15T11:17:59;100113.63;;;13.45;100.00
13968;BME280;39536;52.198;9.920;2022-11-15T11:20:37;100109.16;;;13.47;100.00
13968;BME280;39536;52.198;9.920;2022-11-15T11:23:19;100105.63;;;13.48;100.00
13968;BME280;39536;52.198;9.920;2022-11-15T11:25:55;100107.66;;;13.43;100.00
13968;BME280;39536;52.198;9.920;2022-11-15T11:28:37;100104.25;;;13.41;100.00
13968;BME280;39536;52.198;9.920;2022-11-15T11:31:14;100106.97;;;13.39;100.00
13968;BME280;39536;52.198;9.920;2022-11-15T11:33:50;100106.97;;;13.39;100.00
13968;BME280;39536;52.198;9.920;2022-11-15T11:36:27;100103.25;;;13.44;100.00
13968;BME280;39536;52.198;9.920;2022-11-15T11:39:14;100103.31;;;13.42;100.00
13968;BME280;39536;52.198;9.920;2022-11-15T11:41:51;100106.88;;;13.41;100.00
13968;BME280;39536;52.198;9.920;2022-11-15T11:44:33;100100.84;;;13.39;100.00
13968;BME280;39536;52.198;9.920;2022-11-15T11:47:09;100100.28;;;13.34;100.00
13968;BME280;39536;52.198;9.920;2022-11-15T11:49:41;100107.13;;;13.36;100.00
13968;BME280;39536;52.198;9.920;2022-11-15T11:52:14;100101.16;;;13.33;100.00
13968;BME280;39536;52.198;9.920;2022-11-15T11:54:51;100097.81;;;13.31;100.00
13968;BME280;39536;52.198;9.920;2022-11-15T11:57:31;100106.41;;;13.33;100.00
13968;BME280;39536;52.198;9.920;2022-11-15T12:00:03;100103.88;;;13.31;100.00
13968;BME280;39536;52.198;9.920;2022-11-15T12:02:33;100098.13;;;13.25;100.00
13968;BME280;39536;52.198;9.920;2022-11-15T12:05:10;100099.75;;;13.27;100.00
13968;BME280;39536;52.198;9.920;2022-11-15T12:07:42;100098.03;;;13.26;100.00
13968;BME280;39536;52.198;9.920;2022-11-15T12:10:21;100085.63;;;13.30;100.00
13968;BME280;39536;52.198;9.920;2022-11-15T12:12:56;100078.09;;;13.41;100.00
13968;BME280;39536;52.198;9.920;2022-11-15T12:15:27;100073.00;;;13.55;100.00
13968;BME280;39536;52.198;9.920;2022-11-15T12:17:56;100062.63;;;13.70;100.00
13968;BME280;39536;52.198;9.920;2022-11-15T12:20:27;100063.25;;;13.75;100.00
13968;BME280;39536;52.198;9.920;2022-11-15T12:22:58;100065.00;;;13.74;100.00
13968;BME280;39536;52.198;9.920;2022-11-15T12:25:30;100066.09;;;13.70;100.00
13968;BME280;39536;52.198;9.920;2022-11-15T12:28:06;100068.78;;;13.69;100.00
13968;BME280;39536;52.198;9.920;2022-11-15T12:30:43;100062.72;;;13.68;100.00
13968;BME280;39536;52.198;9.920;2022-11-15T12:33:29;100052.09;;;13.71;100.00
13968;BME280;39536;52.198;9.920;2022-11-15T12:36:01;100058.06;;;13.73;100.00
13968;BME280;39536;52.198;9.920;2022-11-15T12:38:52;100055.44;;;13.73;100.00
13968;BME280;39536;52.198;9.920;2022-11-15T12:41:20;100055.44;;;13.73;100.00
13968;BME280;39536;52.198;9.920;2022-11-15T12:43:48;100053.50;;;13.77;100.00
13968;BME280;39536;52.198;9.920;2022-11-15T12:46:33;100052.59;;;13.78;100.00
13968;BME280;39536;52.198;9.920;2022-11-15T12:49:11;100043.81;;;13.79;100.00
13968;BME280;39536;52.198;9.920;2022-11-15T12:52:07;100039.19;;;13.84;100.00
13968;BME280;39536;52.198;9.920;2022-11-15T12:58:24;100024.66;;;13.78;100.00
13968;BME280;39536;52.198;9.920;2022-11-15T13:00:52;100024.22;;;13.86;100.00
13968;BME280;39536;52.198;9.920;2022-11-15T13:03:28;100010.13;;;13.89;100.00
13968;BME280;39536;52.198;9.920;2022-11-15T13:08:58;100014.84;;;13.98;100.00
13968;BME280;39536;52.198;9.920;2022-11-15T13:11:48;100020.75;;;14.01;100.00
13968;BME280;39536;52.198;9.920;2022-11-15T13:17:34;100010.22;;;14.03;100.00